createdAt,value
2023-05-09T00:00:55.846Z,6.47
2023-05-09T00:03:22.825Z,6.00
2023-05-09T00:05:49.880Z,8.03
2023-05-09T00:08:17.082Z,6.43
2023-05-09T00:10:44.106Z,8.13
2023-05-09T00:13:12.231Z,6.33
2023-05-09T00:15:39.415Z,8.23
2023-05-09T00:18:06.673Z,6.77
2023-05-09T00:20:34.173Z,6.43
2023-05-09T00:23:01.237Z,6.20
2023-05-09T00:25:28.304Z,9.27
2023-05-09T00:27:55.332Z,7.90
2023-05-09T00:30:22.361Z,7.20
2023-05-09T00:32:49.457Z,8.67
2023-05-09T00:35:16.717Z,7.43
2023-05-09T00:37:43.835Z,8.90
2023-05-09T00:40:11.581Z,9.17
2023-05-09T00:42:38.577Z,10.33
2023-05-09T00:45:07.085Z,10.43
2023-05-09T00:47:34.394Z,9.80
2023-05-09T00:50:02.430Z,9.73
2023-05-09T00:52:30.083Z,11.00
2023-05-09T00:54:57.736Z,7.77
2023-05-09T00:57:24.791Z,8.07
2023-05-09T00:59:51.827Z,8.07
2023-05-09T01:02:19.261Z,7.00
2023-05-09T01:04:47.284Z,9.60
2023-05-09T01:07:39.476Z,8.83
2023-05-09T01:10:36.993Z,10.40
2023-05-09T01:13:38.496Z,8.87
2023-05-09T01:16:26.622Z,10.93
2023-05-09T01:19:09.576Z,9.47
2023-05-09T01:21:40.741Z,10.47
2023-05-09T01:24:25.072Z,8.50
2023-05-09T01:27:36.340Z,10.03
2023-05-09T01:30:04.985Z,10.93
2023-05-09T01:32:36.495Z,10.57
2023-05-09T01:35:05.258Z,10.60
2023-05-09T01:37:39.709Z,11.90
2023-05-09T01:40:20.183Z,9.77
2023-05-09T01:43:00.138Z,8.77
2023-05-09T01:45:28.801Z,9.27
2023-05-09T01:47:58.292Z,10.27
2023-05-09T01:50:26.917Z,11.03
2023-05-09T01:52:57.786Z,12.50
2023-05-09T01:55:32.913Z,12.93
2023-05-09T01:58:01.208Z,11.87
2023-05-09T02:00:28.810Z,11.57
2023-05-09T02:02:57.707Z,10.57
2023-05-09T02:05:28.768Z,11.77
2023-05-09T02:07:58.576Z,11.50
2023-05-09T02:10:28.702Z,11.57
2023-05-09T02:12:57.306Z,11.70
2023-05-09T02:15:26.069Z,11.57
2023-05-09T02:17:53.237Z,11.33
2023-05-09T02:20:20.562Z,11.00
2023-05-09T02:22:48.420Z,11.57
2023-05-09T02:25:16.114Z,12.30
2023-05-09T02:27:46.179Z,12.30
2023-05-09T02:30:21.098Z,12.73
2023-05-09T02:32:50.806Z,11.97
2023-05-09T02:35:18.647Z,11.37
2023-05-09T02:37:47.512Z,12.87
2023-05-09T02:40:14.804Z,12.60
2023-05-09T02:42:41.988Z,12.00
2023-05-09T02:45:11.161Z,14.13
2023-05-09T02:47:39.345Z,13.57
2023-05-09T02:50:07.390Z,15.40
2023-05-09T02:52:34.465Z,13.30
2023-05-09T02:55:01.423Z,14.67
2023-05-09T02:57:28.381Z,13.77
2023-05-09T02:59:55.363Z,15.57
2023-05-09T03:02:23.800Z,16.03
2023-05-09T03:04:51.055Z,14.00
2023-05-09T03:07:18.103Z,14.40
2023-05-09T03:09:45.149Z,15.97
2023-05-09T03:12:12.237Z,15.33
2023-05-09T03:14:39.237Z,14.27
2023-05-09T03:17:06.292Z,14.93
2023-05-09T03:19:33.676Z,14.40
2023-05-09T03:22:00.710Z,15.30
2023-05-09T03:24:28.339Z,13.13
2023-05-09T03:26:55.610Z,13.80
2023-05-09T03:29:22.836Z,14.83
2023-05-09T03:31:49.930Z,15.43
2023-05-09T03:34:17.257Z,14.07
2023-05-09T03:36:44.715Z,14.03
2023-05-09T03:39:11.772Z,13.90
2023-05-09T03:41:38.841Z,13.63
2023-05-09T03:44:06.197Z,13.97
2023-05-09T03:46:33.284Z,13.03
2023-05-09T03:49:00.332Z,13.83
2023-05-09T03:51:27.333Z,14.03
2023-05-09T03:53:54.347Z,11.77
2023-05-09T03:56:21.290Z,12.27
2023-05-09T03:58:48.636Z,13.83
2023-05-09T04:01:16.203Z,13.15
2023-05-09T04:03:43.398Z,12.82
2023-05-09T04:06:10.701Z,11.82
2023-05-09T04:08:37.877Z,13.30
2023-05-09T04:11:04.977Z,12.85
2023-05-09T04:13:33.104Z,11.98
2023-05-09T04:16:00.121Z,12.02
2023-05-09T04:18:27.237Z,11.50
2023-05-09T04:20:54.273Z,11.10
2023-05-09T04:23:21.225Z,11.73
2023-05-09T04:25:50.332Z,12.80
2023-05-09T04:28:17.521Z,13.00
2023-05-09T04:30:44.549Z,11.93
2023-05-09T04:33:11.653Z,13.10
2023-05-09T04:35:38.863Z,12.23
2023-05-09T04:38:06.068Z,11.43
2023-05-09T04:40:33.482Z,11.88
2023-05-09T04:43:00.491Z,11.90
2023-05-09T04:45:27.785Z,12.50
2023-05-09T04:47:54.831Z,12.70
2023-05-09T04:50:21.887Z,12.73
2023-05-09T04:52:49.129Z,12.57
2023-05-09T04:55:16.451Z,12.70
2023-05-09T04:57:43.572Z,11.95
2023-05-09T05:00:11.997Z,11.88
2023-05-09T05:02:39.132Z,12.50
2023-05-09T05:05:12.100Z,13.27
2023-05-09T05:07:39.745Z,12.10
2023-05-09T05:10:07.611Z,12.18
2023-05-09T05:12:34.668Z,12.70
2023-05-09T05:15:01.678Z,12.27
2023-05-09T05:17:29.678Z,12.90
2023-05-09T05:19:56.986Z,11.93
2023-05-09T05:22:24.366Z,10.70
2023-05-09T05:24:51.414Z,7.97
2023-05-09T05:27:18.494Z,7.60
2023-05-09T05:29:45.470Z,7.00
2023-05-09T05:32:12.575Z,6.95
2023-05-09T05:34:39.769Z,5.43
2023-05-09T05:37:06.792Z,5.72
2023-05-09T05:39:33.822Z,5.70
2023-05-09T05:42:00.850Z,5.10
2023-05-09T05:44:27.828Z,5.10
2023-05-09T05:46:54.850Z,5.32
2023-05-09T05:49:21.879Z,4.72
2023-05-09T05:51:48.893Z,5.00
2023-05-09T05:54:15.863Z,4.47
2023-05-09T05:56:43.045Z,4.32
2023-05-09T05:59:12.556Z,4.45
2023-05-09T06:01:40.832Z,4.57
2023-05-09T06:04:08.074Z,7.20
2023-05-09T06:06:35.203Z,4.47
2023-05-09T06:09:02.199Z,4.93
2023-05-09T06:11:29.197Z,4.18
2023-05-09T06:13:56.269Z,4.50
2023-05-09T06:16:23.384Z,4.38
2023-05-09T06:18:51.155Z,4.32
2023-05-09T06:21:18.788Z,5.47
2023-05-09T06:23:57.820Z,5.43
2023-05-09T06:26:29.378Z,5.57
2023-05-09T06:28:56.446Z,4.97
2023-05-09T06:31:25.473Z,5.30
2023-05-09T06:33:53.202Z,4.97
2023-05-09T06:36:20.353Z,5.78
2023-05-09T06:38:47.412Z,4.85
2023-05-09T06:41:14.560Z,4.80
2023-05-09T06:43:41.579Z,4.90
2023-05-09T06:46:08.644Z,5.22
2023-05-09T06:48:35.780Z,5.00
2023-05-09T06:51:03.061Z,4.53
2023-05-09T06:53:30.027Z,3.92
2023-05-09T06:55:57.092Z,4.60
2023-05-09T06:58:24.204Z,4.00
2023-05-09T07:00:51.709Z,4.07
2023-05-09T07:03:18.732Z,3.85
2023-05-09T07:05:45.856Z,3.78
2023-05-09T07:08:12.810Z,3.63
2023-05-09T07:10:40.069Z,3.17
2023-05-09T07:13:07.176Z,4.13
2023-05-09T07:15:42.234Z,3.67
2023-05-09T07:18:10.093Z,4.00
2023-05-09T07:20:37.337Z,3.70
2023-05-09T07:23:06.017Z,3.55
2023-05-09T07:25:33.966Z,3.83
2023-05-09T07:28:01.193Z,3.28
2023-05-09T07:30:28.247Z,2.78
2023-05-09T07:32:55.356Z,3.47
2023-05-09T07:35:22.664Z,3.28
2023-05-09T07:37:49.717Z,3.10
2023-05-09T07:40:17.004Z,2.30
2023-05-09T07:42:50.022Z,2.05
2023-05-09T07:45:18.831Z,2.42
2023-05-09T07:47:47.050Z,2.40
2023-05-09T07:50:14.074Z,2.33
2023-05-09T07:52:41.196Z,1.98
2023-05-09T07:55:08.686Z,1.50
2023-05-09T07:57:35.691Z,2.00
2023-05-09T08:00:02.829Z,2.42
2023-05-09T08:02:29.851Z,1.98
2023-05-09T08:04:56.918Z,2.35
2023-05-09T08:07:23.885Z,1.95
2023-05-09T08:09:50.908Z,1.77
2023-05-09T08:12:17.981Z,1.98
2023-05-09T08:14:45.115Z,2.55
2023-05-09T08:17:12.149Z,1.83
2023-05-09T08:19:39.192Z,1.95
2023-05-09T08:22:06.154Z,1.95
2023-05-09T08:24:33.204Z,2.00
2023-05-09T08:27:00.762Z,2.15
2023-05-09T08:29:28.977Z,1.95
2023-05-09T08:31:56.102Z,1.83
2023-05-09T08:34:23.226Z,2.40
2023-05-09T08:36:50.237Z,2.00
2023-05-09T08:39:17.285Z,1.98
2023-05-09T08:41:44.579Z,2.00
2023-05-09T08:44:11.761Z,2.45
2023-05-09T08:46:43.758Z,1.80
2023-05-09T08:49:11.597Z,1.75
2023-05-09T08:51:39.740Z,2.05
2023-05-09T08:54:06.994Z,2.30
2023-05-09T08:56:35.525Z,2.00
2023-05-09T08:59:03.986Z,1.92
2023-05-09T09:01:33.270Z,2.67
2023-05-09T09:04:01.123Z,4.00
2023-05-09T09:06:30.230Z,2.28
2023-05-09T09:08:58.918Z,1.80
2023-05-09T09:11:28.638Z,2.17
2023-05-09T09:13:59.556Z,2.20
2023-05-09T09:16:28.893Z,2.08
2023-05-09T09:18:58.952Z,1.77
2023-05-09T09:21:27.425Z,1.83
2023-05-09T09:23:56.760Z,2.25
2023-05-09T09:26:24.786Z,1.80
2023-05-09T09:28:52.037Z,2.38
2023-05-09T09:31:26.009Z,2.38
2023-05-09T09:33:58.899Z,1.80
2023-05-09T09:36:32.324Z,1.63
2023-05-09T09:39:02.491Z,1.90
2023-05-09T09:41:37.104Z,1.80
2023-05-09T09:44:14.336Z,1.75
2023-05-09T09:46:55.881Z,1.90
2023-05-09T09:49:25.532Z,2.05
2023-05-09T09:51:58.032Z,2.22
2023-05-09T09:54:29.055Z,1.80
2023-05-09T09:56:56.542Z,1.80
2023-05-09T09:59:26.672Z,2.20
2023-05-09T10:02:01.889Z,1.92
2023-05-09T10:04:32.712Z,1.60
2023-05-09T10:07:06.425Z,1.70
2023-05-09T10:09:35.720Z,1.77
2023-05-09T10:12:06.291Z,2.20
2023-05-09T10:14:36.619Z,1.98
2023-05-09T10:17:05.933Z,2.10
2023-05-09T10:19:35.835Z,2.10
2023-05-09T10:22:11.940Z,2.05
2023-05-09T10:25:14.082Z,2.00
2023-05-09T10:27:46.784Z,2.00
2023-05-09T10:30:34.214Z,1.90
2023-05-09T10:33:10.475Z,1.85
2023-05-09T10:35:47.248Z,1.75
2023-05-09T10:38:14.553Z,2.10
2023-05-09T10:40:42.031Z,1.92
2023-05-09T10:43:09.065Z,2.55
2023-05-09T10:45:36.888Z,2.03
2023-05-09T10:48:08.855Z,2.08
2023-05-09T10:50:37.731Z,2.22
2023-05-09T10:53:04.868Z,2.20
2023-05-09T10:55:39.999Z,2.17
2023-05-09T10:58:28.876Z,1.80
2023-05-09T11:00:59.301Z,2.13
2023-05-09T11:03:28.190Z,1.85
2023-05-09T11:05:58.506Z,1.73
2023-05-09T11:08:31.315Z,1.92
2023-05-09T11:11:07.442Z,2.08
2023-05-09T11:13:38.505Z,2.28
2023-05-09T11:16:09.412Z,1.92
2023-05-09T11:18:52.032Z,2.30
2023-05-09T11:21:20.478Z,2.08
2023-05-09T11:23:49.091Z,2.05
2023-05-09T11:26:16.862Z,1.95
2023-05-09T11:28:53.965Z,2.13
2023-05-09T11:31:21.161Z,1.80
2023-05-09T11:33:55.182Z,1.75
2023-05-09T11:36:30.020Z,2.47
2023-05-09T11:39:11.465Z,2.30
2023-05-09T11:41:46.309Z,2.47
2023-05-09T11:44:21.350Z,2.30
2023-05-09T11:46:49.523Z,2.03
2023-05-09T11:49:17.789Z,2.22
2023-05-09T11:51:44.820Z,2.05
2023-05-09T11:54:13.687Z,2.00
2023-05-09T11:56:42.029Z,2.00
2023-05-09T11:59:10.597Z,2.70
2023-05-09T12:01:37.685Z,1.85
2023-05-09T12:04:08.399Z,2.10
2023-05-09T12:06:35.479Z,2.28
2023-05-09T12:09:02.603Z,2.13
2023-05-09T12:11:32.473Z,1.90
2023-05-09T12:13:59.685Z,1.98
2023-05-09T12:16:26.829Z,2.00
2023-05-09T12:18:54.355Z,2.50
2023-05-09T12:21:21.858Z,2.15
2023-05-09T12:23:51.298Z,2.22
2023-05-09T12:26:22.187Z,1.67
2023-05-09T12:28:50.117Z,2.30
2023-05-09T12:31:17.985Z,2.67
2023-05-09T12:33:45.253Z,1.90
2023-05-09T12:36:13.806Z,2.03
2023-05-09T12:38:40.961Z,1.58
2023-05-09T12:41:33.382Z,1.98
2023-05-09T12:43:59.155Z,2.17
2023-05-09T12:46:26.196Z,1.92
2023-05-09T12:48:55.288Z,2.22
2023-05-09T12:51:23.559Z,1.90
2023-05-09T12:53:50.596Z,1.50
2023-05-09T12:56:20.885Z,2.17
2023-05-09T12:58:53.422Z,2.00
2023-05-09T13:01:23.766Z,2.20
2023-05-09T13:04:05.916Z,1.70
2023-05-09T13:06:34.471Z,2.00
2023-05-09T13:09:06.149Z,2.80
2023-05-09T13:11:33.283Z,2.00
2023-05-09T13:14:00.428Z,2.20
2023-05-09T13:16:27.720Z,2.00
2023-05-09T13:18:54.767Z,2.35
2023-05-09T13:21:21.829Z,2.30
2023-05-09T13:23:50.241Z,2.17
2023-05-09T13:26:17.492Z,1.90
2023-05-09T13:28:44.548Z,1.90
2023-05-09T13:31:11.670Z,1.50
2023-05-09T13:33:38.826Z,1.45
2023-05-09T13:36:06.661Z,2.08
2023-05-09T13:38:37.167Z,1.67
2023-05-09T13:41:04.378Z,2.17
2023-05-09T13:43:31.359Z,1.60
2023-05-09T13:45:58.417Z,1.70
2023-05-09T13:48:25.416Z,2.00
2023-05-09T13:50:52.577Z,1.80
2023-05-09T13:53:20.020Z,2.55
2023-05-09T13:55:47.348Z,1.65
2023-05-09T13:58:14.380Z,1.58
2023-05-09T14:00:41.949Z,2.47
2023-05-09T14:03:09.758Z,2.20
2023-05-09T14:05:36.816Z,1.92
2023-05-09T14:08:03.969Z,2.15
2023-05-09T14:10:30.959Z,2.08
2023-05-09T14:12:58.777Z,1.90
2023-05-09T14:15:26.093Z,2.00
2023-05-09T14:17:53.142Z,2.03
2023-05-09T14:20:21.265Z,2.28
2023-05-09T14:22:48.331Z,2.05
2023-05-09T14:25:15.370Z,2.28
2023-05-09T14:27:42.377Z,2.28
2023-05-09T14:30:11.408Z,1.95
2023-05-09T14:32:38.411Z,2.20
2023-05-09T14:35:06.209Z,1.73
2023-05-09T14:37:33.854Z,1.95
2023-05-09T14:40:05.511Z,2.20
2023-05-09T14:42:32.963Z,2.17
2023-05-09T14:44:59.972Z,1.85
2023-05-09T14:47:27.093Z,1.98
2023-05-09T14:49:54.231Z,2.47
2023-05-09T14:52:21.223Z,1.90
2023-05-09T14:54:48.205Z,1.95
2023-05-09T14:57:15.155Z,2.35
2023-05-09T14:59:42.296Z,2.00
2023-05-09T15:02:09.256Z,2.35
2023-05-09T15:04:36.270Z,2.60
2023-05-09T15:07:03.277Z,2.20
2023-05-09T15:09:30.269Z,1.90
2023-05-09T15:11:57.249Z,1.88
2023-05-09T15:14:24.257Z,1.50
2023-05-09T15:16:55.385Z,2.15
2023-05-09T15:19:22.670Z,2.47
2023-05-09T15:21:49.833Z,1.85
2023-05-09T15:24:17.135Z,2.72
2023-05-09T15:26:44.323Z,2.53
2023-05-09T15:29:11.350Z,2.00
2023-05-09T15:31:38.517Z,2.47
2023-05-09T15:34:05.501Z,2.10
2023-05-09T15:36:34.015Z,1.90
2023-05-09T15:39:01.400Z,2.15
2023-05-09T15:41:28.755Z,2.03
2023-05-09T15:43:55.792Z,1.70
2023-05-09T15:46:22.968Z,2.22
2023-05-09T15:48:50.681Z,2.55
2023-05-09T15:51:17.751Z,2.30
2023-05-09T15:53:44.925Z,2.50
2023-05-09T15:56:11.933Z,2.08
2023-05-09T15:58:40.343Z,2.17
2023-05-09T16:01:08.276Z,2.17
2023-05-09T16:03:35.817Z,2.10
2023-05-09T16:06:03.362Z,2.03
2023-05-09T16:08:30.422Z,2.20
2023-05-09T16:11:00.818Z,2.22
2023-05-09T16:13:28.297Z,2.40
2023-05-09T16:15:55.692Z,2.00
2023-05-09T16:18:22.862Z,1.92
2023-05-09T16:20:49.891Z,2.10
2023-05-09T16:23:17.007Z,2.15
2023-05-09T16:25:45.045Z,2.05
2023-05-09T16:28:12.237Z,2.17
2023-05-09T16:30:39.250Z,2.05
2023-05-09T16:33:06.277Z,2.00
2023-05-09T16:35:33.967Z,2.10
2023-05-09T16:38:01.084Z,2.00
2023-05-09T16:40:28.594Z,1.92
2023-05-09T16:42:55.841Z,2.17
2023-05-09T16:45:22.891Z,2.25
2023-05-09T16:47:51.242Z,2.00
2023-05-09T16:50:18.448Z,2.38
2023-05-09T16:52:45.512Z,2.20
2023-05-09T16:55:12.595Z,2.28
2023-05-09T16:57:39.709Z,2.30
2023-05-09T17:00:09.851Z,2.28
2023-05-09T17:02:37.309Z,2.28
2023-05-09T17:05:05.134Z,2.30
2023-05-09T17:07:32.355Z,2.17
2023-05-09T17:09:59.583Z,2.15
2023-05-09T17:12:27.627Z,2.03
2023-05-09T17:14:54.703Z,2.38
2023-05-09T17:17:21.743Z,2.15
2023-05-09T17:19:48.901Z,2.53
2023-05-09T17:22:15.892Z,1.90
2023-05-09T17:24:42.945Z,2.08
2023-05-09T17:27:11.499Z,2.50
2023-05-09T17:29:38.549Z,2.53
2023-05-09T17:32:05.894Z,2.35
2023-05-09T17:34:33.513Z,2.60
2023-05-09T17:37:02.361Z,2.25
2023-05-09T17:39:29.613Z,2.25
2023-05-09T17:41:56.706Z,2.30
2023-05-09T17:44:24.119Z,2.47
2023-05-09T17:46:51.223Z,2.47
2023-05-09T17:49:18.424Z,2.33
2023-05-09T17:51:45.456Z,2.40
2023-05-09T17:54:12.979Z,1.98
2023-05-09T17:56:40.151Z,2.35
2023-05-09T18:01:35.068Z,2.17
2023-05-09T18:04:02.260Z,2.40
2023-05-09T18:06:29.445Z,2.33
2023-05-09T18:08:56.421Z,1.98
2023-05-09T18:11:24.575Z,2.90
2023-05-09T18:13:51.627Z,2.38
2023-05-09T18:16:18.683Z,2.58
2023-05-09T18:18:45.783Z,2.78
2023-05-09T18:21:13.073Z,2.50
2023-05-09T18:23:41.046Z,2.88
2023-05-09T18:26:08.614Z,2.33
2023-05-09T18:28:41.761Z,2.88
2023-05-09T18:31:11.666Z,2.28
2023-05-09T18:33:39.415Z,2.20
2023-05-09T18:36:11.230Z,2.42
2023-05-09T18:38:39.860Z,2.60
2023-05-09T18:41:15.610Z,2.90
2023-05-09T18:43:46.576Z,3.00
2023-05-09T18:46:17.638Z,2.47
2023-05-09T18:48:46.322Z,3.05
2023-05-09T18:51:13.439Z,2.67
2023-05-09T18:53:40.532Z,2.90
2023-05-09T18:56:07.778Z,2.58
2023-05-09T18:58:35.833Z,3.00
2023-05-09T19:01:03.060Z,2.85
2023-05-09T19:03:30.459Z,3.28
2023-05-09T19:05:59.820Z,3.50
2023-05-09T19:08:27.346Z,3.72
2023-05-09T19:10:54.383Z,3.88
2023-05-09T19:13:21.536Z,3.53
2023-05-09T19:15:48.650Z,3.30
2023-05-09T19:18:15.676Z,3.80
2023-05-09T19:20:46.569Z,3.80
2023-05-09T19:23:13.570Z,3.17
2023-05-09T19:25:40.632Z,3.47
2023-05-09T19:28:07.766Z,3.53
2023-05-09T19:30:35.963Z,4.25
2023-05-09T19:33:03.055Z,3.22
2023-05-09T19:35:30.098Z,3.40
2023-05-09T19:37:58.165Z,4.18
2023-05-09T19:40:25.160Z,3.50
2023-05-09T19:42:52.166Z,3.60
2023-05-09T19:45:19.977Z,3.13
2023-05-09T19:47:47.175Z,3.60
2023-05-09T19:50:14.451Z,4.18
2023-05-09T19:52:41.761Z,3.85
2023-05-09T19:55:09.814Z,4.05
2023-05-09T19:57:36.931Z,3.83
2023-05-09T20:00:07.032Z,3.70
2023-05-09T20:02:34.484Z,3.63
2023-05-09T20:05:01.598Z,3.70
2023-05-09T20:07:28.757Z,3.75
2023-05-09T20:09:55.875Z,3.53
2023-05-09T20:12:22.887Z,4.07
2023-05-09T20:14:49.891Z,4.03
2023-05-09T20:17:16.947Z,4.10
2023-05-09T20:19:45.081Z,4.05
2023-05-09T20:22:12.125Z,5.22
2023-05-09T20:24:39.170Z,4.35
2023-05-09T20:27:06.196Z,4.75
2023-05-09T20:29:33.261Z,4.95
2023-05-09T20:32:00.504Z,4.32
2023-05-09T20:34:27.612Z,4.47
2023-05-09T20:36:55.170Z,4.63
2023-05-09T20:39:23.166Z,4.32
2023-05-09T20:41:51.375Z,4.50
2023-05-09T20:44:19.216Z,4.32
2023-05-09T20:46:46.596Z,4.40
2023-05-09T20:49:13.801Z,4.53
2023-05-09T20:51:40.896Z,4.07
2023-05-09T20:54:08.115Z,4.45
2023-05-09T20:56:35.680Z,4.60
2023-05-09T20:59:04.209Z,4.35
2023-05-09T21:01:35.406Z,4.40
2023-05-09T21:04:08.267Z,4.60
2023-05-09T21:06:36.565Z,4.43
2023-05-09T21:09:09.260Z,4.93
2023-05-09T21:11:37.287Z,4.55
2023-05-09T21:14:04.263Z,5.18
2023-05-09T21:16:31.593Z,7.00
2023-05-09T21:19:02.484Z,6.13
2023-05-09T21:21:31.603Z,6.55
2023-05-09T21:23:59.621Z,5.43
2023-05-09T21:26:26.730Z,6.05
2023-05-09T21:28:53.805Z,4.57
2023-05-09T21:31:20.979Z,4.45
2023-05-09T21:33:48.040Z,4.18
2023-05-09T21:36:15.048Z,5.18
2023-05-09T21:38:42.111Z,4.80
2023-05-09T21:41:10.159Z,4.65
2023-05-09T21:43:37.732Z,4.70
2023-05-09T21:46:06.094Z,4.00
2023-05-09T21:48:33.258Z,3.65
2023-05-09T21:51:03.957Z,4.30
2023-05-09T21:53:31.193Z,4.18
2023-05-09T21:55:58.188Z,4.10
2023-05-09T21:58:25.295Z,3.78
2023-05-09T22:00:52.261Z,3.63
2023-05-09T22:03:19.440Z,4.50
2023-05-09T22:05:46.530Z,4.65
2023-05-09T22:08:13.629Z,4.40
2023-05-09T22:10:40.923Z,4.28
2023-05-09T22:13:08.675Z,4.20
2023-05-09T22:15:35.703Z,3.95
2023-05-09T22:18:02.788Z,4.32
2023-05-09T22:20:29.888Z,4.10
2023-05-09T22:22:57.021Z,4.07
2023-05-09T22:25:23.976Z,4.43
2023-05-09T22:27:51.230Z,4.45
2023-05-09T22:30:18.418Z,3.67
2023-05-09T22:32:45.983Z,4.00
2023-05-09T22:35:13.085Z,3.55
2023-05-09T22:37:40.143Z,3.88
2023-05-09T22:40:09.342Z,4.38
2023-05-09T22:42:36.603Z,4.53
2023-05-09T22:45:03.899Z,4.57
2023-05-09T22:47:30.942Z,4.10
2023-05-09T22:49:58.108Z,4.47
2023-05-09T22:52:25.192Z,4.50
2023-05-09T22:54:52.583Z,5.13
2023-05-09T22:57:20.563Z,4.75
2023-05-09T22:59:47.634Z,4.90
2023-05-09T23:02:14.720Z,5.15
2023-05-09T23:04:41.890Z,5.13
2023-05-09T23:07:08.903Z,5.10
2023-05-09T23:09:35.924Z,5.85
2023-05-09T23:12:03.625Z,5.15
2023-05-09T23:14:30.681Z,5.97
2023-05-09T23:16:57.658Z,5.50
2023-05-09T23:19:24.736Z,5.35
2023-05-09T23:21:51.831Z,4.50
2023-05-09T23:24:18.949Z,6.23
2023-05-09T23:26:45.952Z,5.67
2023-05-09T23:29:13.022Z,6.53
2023-05-09T23:31:40.140Z,5.63
2023-05-09T23:34:07.156Z,5.83
2023-05-09T23:36:34.136Z,5.83
2023-05-09T23:39:01.168Z,5.63
2023-05-09T23:41:28.145Z,5.50
2023-05-09T23:43:57.965Z,5.97
2023-05-09T23:46:25.118Z,5.83
2023-05-09T23:48:52.175Z,5.70
2023-05-09T23:51:20.590Z,5.17
2023-05-09T23:53:47.641Z,5.47
2023-05-09T23:56:15.120Z,5.47
2023-05-09T23:58:42.788Z,5.40
